createdAt,value
2023-02-16T00:00:30.988Z,59.95
2023-02-16T00:02:58.257Z,60.21
2023-02-16T00:05:29.164Z,61.61
2023-02-16T00:07:57.640Z,61.19
2023-02-16T00:10:28.169Z,62.01
2023-02-16T00:13:13.605Z,62.06
2023-02-16T00:15:41.246Z,61.89
2023-02-16T00:18:21.004Z,62.63
2023-02-16T00:20:49.614Z,62.83
2023-02-16T00:23:16.896Z,62.06
2023-02-16T00:25:43.801Z,61.27
2023-02-16T00:28:18.583Z,60.97
2023-02-16T00:30:46.295Z,61.61
2023-02-16T00:33:17.593Z,61.06
2023-02-16T00:35:45.249Z,60.95
2023-02-16T00:38:13.312Z,60.40
2023-02-16T00:40:42.123Z,60.53
2023-02-16T00:43:28.441Z,59.98
2023-02-16T00:45:56.966Z,60.03
2023-02-16T00:48:25.143Z,59.80
2023-02-16T00:50:53.679Z,59.77
2023-02-16T00:53:20.856Z,59.65
2023-02-16T00:55:48.057Z,59.69
2023-02-16T00:58:24.897Z,59.81
2023-02-16T01:00:56.336Z,60.33
2023-02-16T01:03:27.213Z,59.86
2023-02-16T01:06:15.040Z,59.79
2023-02-16T01:09:01.279Z,59.58
2023-02-16T01:11:29.818Z,59.80
2023-02-16T01:13:58.110Z,59.77
2023-02-16T01:16:33.250Z,59.71
2023-02-16T01:19:00.247Z,59.72
2023-02-16T01:21:27.431Z,59.61
2023-02-16T01:23:54.397Z,59.51
2023-02-16T01:26:21.952Z,59.81
2023-02-16T01:28:49.197Z,59.77
2023-02-16T01:31:17.817Z,59.39
2023-02-16T01:33:45.009Z,60.21
2023-02-16T01:36:27.621Z,60.04
2023-02-16T01:38:54.562Z,59.51
2023-02-16T01:41:51.621Z,59.44
2023-02-16T01:44:24.709Z,59.51
2023-02-16T01:47:33.946Z,59.50
2023-02-16T01:50:16.207Z,58.96
2023-02-16T01:52:50.640Z,59.29
2023-02-16T01:55:26.195Z,59.33
2023-02-16T01:58:48.738Z,59.14
2023-02-16T02:01:40.100Z,59.56
2023-02-16T02:05:19.116Z,60.52
2023-02-16T02:07:53.334Z,61.45
2023-02-16T02:10:32.020Z,61.34
2023-02-16T02:13:20.506Z,60.82
2023-02-16T02:15:48.154Z,60.76
2023-02-16T02:18:15.466Z,60.49
2023-02-16T02:21:16.435Z,60.21
2023-02-16T02:24:03.961Z,60.22
2023-02-16T02:27:32.902Z,60.44
2023-02-16T02:30:37.739Z,60.30
2023-02-16T02:33:42.076Z,60.76
2023-02-16T02:36:46.032Z,61.51
2023-02-16T02:39:43.617Z,61.78
2023-02-16T02:42:19.987Z,61.02
2023-02-16T02:45:14.299Z,61.55
2023-02-16T02:47:47.566Z,60.83
2023-02-16T02:51:06.442Z,60.26
2023-02-16T02:53:40.213Z,60.44
2023-02-16T02:56:28.901Z,60.52
2023-02-16T02:59:23.405Z,60.55
2023-02-16T03:01:56.685Z,60.22
2023-02-16T03:04:28.844Z,60.13
2023-02-16T03:06:58.700Z,59.94
2023-02-16T03:09:26.147Z,60.21
2023-02-16T03:12:13.378Z,59.96
2023-02-16T03:14:54.750Z,59.88
2023-02-16T03:17:48.470Z,59.89
2023-02-16T03:20:35.389Z,59.81
2023-02-16T03:23:24.664Z,59.71
2023-02-16T03:26:11.721Z,59.51
2023-02-16T03:29:00.759Z,59.55
2023-02-16T03:31:38.506Z,59.36
2023-02-16T03:34:07.078Z,59.37
2023-02-16T03:36:39.974Z,59.45
2023-02-16T03:39:08.092Z,59.54
2023-02-16T03:41:44.115Z,59.50
2023-02-16T03:44:11.044Z,59.63
2023-02-16T03:46:38.273Z,59.45
2023-02-16T03:49:05.161Z,59.60
2023-02-16T03:51:32.151Z,59.67
2023-02-16T03:53:59.233Z,59.88
2023-02-16T03:56:26.182Z,59.76
2023-02-16T03:58:53.460Z,59.90
2023-02-16T04:01:20.460Z,59.67
2023-02-16T04:03:47.724Z,59.62
2023-02-16T04:06:14.801Z,59.50
2023-02-16T04:08:41.776Z,59.31
2023-02-16T04:11:27.736Z,59.41
2023-02-16T04:13:54.692Z,59.65
2023-02-16T04:16:21.732Z,59.57
2023-02-16T04:18:48.790Z,59.63
2023-02-16T04:21:15.762Z,59.11
2023-02-16T04:23:43.098Z,59.38
2023-02-16T04:26:10.009Z,59.17
2023-02-16T04:28:36.898Z,59.67
2023-02-16T04:31:04.321Z,59.92
2023-02-16T04:33:31.414Z,59.47
2023-02-16T04:35:58.453Z,60.40
2023-02-16T04:38:26.205Z,60.35
2023-02-16T04:40:53.198Z,60.17
2023-02-16T04:43:20.086Z,60.73
2023-02-16T04:45:47.195Z,60.16
2023-02-16T04:48:14.077Z,60.03
2023-02-16T04:50:41.084Z,60.70
2023-02-16T04:53:08.020Z,60.41
2023-02-16T04:55:35.198Z,60.61
2023-02-16T04:58:02.166Z,60.62
2023-02-16T05:00:29.270Z,60.19
2023-02-16T05:02:57.178Z,60.56
2023-02-16T05:05:24.220Z,60.84
2023-02-16T05:07:51.260Z,60.23
2023-02-16T05:10:18.349Z,60.14
2023-02-16T05:13:03.866Z,60.13
2023-02-16T05:15:30.851Z,59.93
2023-02-16T05:17:57.976Z,59.89
2023-02-16T05:20:44.989Z,60.09
2023-02-16T05:23:11.990Z,60.02
2023-02-16T05:25:38.966Z,59.86
2023-02-16T05:28:06.066Z,59.83
2023-02-16T05:30:33.263Z,59.84
2023-02-16T05:33:00.237Z,59.88
2023-02-16T05:35:28.486Z,60.85
2023-02-16T05:37:55.560Z,60.65
2023-02-16T05:40:22.796Z,60.22
2023-02-16T05:42:54.344Z,60.10
2023-02-16T05:45:21.651Z,60.09
2023-02-16T05:47:48.692Z,59.95
2023-02-16T05:50:15.878Z,59.62
2023-02-16T05:52:42.962Z,59.76
2023-02-16T05:55:10.599Z,59.74
2023-02-16T05:57:37.737Z,59.71
2023-02-16T06:00:05.988Z,59.94
2023-02-16T06:02:33.243Z,59.90
2023-02-16T06:05:00.419Z,60.11
2023-02-16T06:07:27.347Z,60.18
2023-02-16T06:09:54.293Z,59.87
2023-02-16T06:12:21.409Z,60.12
2023-02-16T06:14:48.430Z,59.91
2023-02-16T06:17:15.433Z,60.05
2023-02-16T06:19:42.522Z,60.11
2023-02-16T06:22:09.391Z,60.08
2023-02-16T06:24:37.185Z,60.61
2023-02-16T06:27:04.666Z,60.37
2023-02-16T06:29:32.007Z,60.52
2023-02-16T06:31:59.319Z,60.58
2023-02-16T06:34:26.378Z,60.69
2023-02-16T06:36:53.409Z,60.54
2023-02-16T06:39:20.442Z,61.02
2023-02-16T06:41:47.409Z,60.71
2023-02-16T06:44:16.056Z,60.90
2023-02-16T06:46:45.481Z,61.44
2023-02-16T06:49:19.910Z,61.32
2023-02-16T06:51:48.638Z,61.17
2023-02-16T06:54:16.658Z,61.16
2023-02-16T06:56:43.807Z,61.25
2023-02-16T06:59:12.389Z,61.82
2023-02-16T07:01:39.435Z,61.53
2023-02-16T07:04:06.313Z,61.95
2023-02-16T07:06:33.267Z,61.99
2023-02-16T07:09:00.492Z,61.60
2023-02-16T07:11:27.676Z,61.65
2023-02-16T07:13:54.970Z,61.72
2023-02-16T07:16:22.112Z,61.69
2023-02-16T07:18:49.333Z,62.12
2023-02-16T07:21:16.636Z,62.06
2023-02-16T07:23:43.799Z,62.27
2023-02-16T07:26:11.016Z,62.39
2023-02-16T07:28:38.130Z,62.31
2023-02-16T07:31:11.025Z,62.52
2023-02-16T07:33:38.843Z,62.79
2023-02-16T07:36:08.991Z,62.62
2023-02-16T07:38:36.100Z,62.67
2023-02-16T07:41:05.797Z,62.87
2023-02-16T07:43:34.729Z,62.73
2023-02-16T07:46:02.300Z,62.76
2023-02-16T07:48:29.331Z,62.78
2023-02-16T07:50:56.219Z,62.72
2023-02-16T07:53:23.186Z,62.87
2023-02-16T07:55:50.085Z,63.30
2023-02-16T07:58:27.335Z,63.18
2023-02-16T08:01:15.904Z,63.24
2023-02-16T08:03:43.319Z,63.99
2023-02-16T08:06:10.555Z,64.33
2023-02-16T08:08:39.045Z,64.56
2023-02-16T08:11:18.858Z,64.55
2023-02-16T08:13:46.897Z,65.13
2023-02-16T08:16:20.916Z,64.89
2023-02-16T08:18:48.505Z,64.87
2023-02-16T08:21:19.713Z,64.77
2023-02-16T08:23:57.626Z,63.91
2023-02-16T08:26:28.849Z,63.92
2023-02-16T08:28:58.320Z,62.03
2023-02-16T08:31:31.962Z,62.55
2023-02-16T08:34:00.532Z,62.09
2023-02-16T08:36:34.550Z,61.52
2023-02-16T08:39:05.918Z,60.27
2023-02-16T08:41:35.953Z,59.31
2023-02-16T08:44:05.249Z,58.24
2023-02-16T08:46:34.128Z,56.68
2023-02-16T08:49:02.018Z,55.67
2023-02-16T08:51:34.772Z,54.28
2023-02-16T08:54:05.972Z,53.52
2023-02-16T08:56:34.364Z,51.46
2023-02-16T08:59:01.856Z,51.37
2023-02-16T09:01:29.024Z,50.98
2023-02-16T09:03:56.081Z,50.54
2023-02-16T09:06:23.422Z,49.22
2023-02-16T09:08:56.781Z,48.00
2023-02-16T09:11:24.682Z,46.67
2023-02-16T09:13:51.763Z,46.76
2023-02-16T09:16:22.456Z,46.32
2023-02-16T09:18:50.835Z,46.84
2023-02-16T09:21:25.498Z,47.53
2023-02-16T09:23:55.747Z,46.19
2023-02-16T09:26:24.787Z,46.87
2023-02-16T09:28:53.468Z,44.55
2023-02-16T09:31:33.696Z,44.59
2023-02-16T09:34:09.388Z,43.71
2023-02-16T09:36:38.132Z,44.44
2023-02-16T09:39:05.691Z,43.25
2023-02-16T09:41:57.712Z,43.84
2023-02-16T09:44:33.633Z,43.33
2023-02-16T09:47:06.467Z,43.54
2023-02-16T09:49:43.927Z,44.46
2023-02-16T09:52:40.174Z,43.99
2023-02-16T09:55:20.709Z,44.07
2023-02-16T09:58:19.543Z,43.64
2023-02-16T10:00:56.405Z,41.68
2023-02-16T10:03:28.785Z,41.74
2023-02-16T10:06:14.185Z,42.75
2023-02-16T10:08:50.177Z,42.30
2023-02-16T10:11:46.510Z,42.67
2023-02-16T10:14:31.617Z,40.87
2023-02-16T10:17:16.986Z,40.81
2023-02-16T10:20:06.265Z,41.47
2023-02-16T10:23:16.207Z,42.69
2023-02-16T10:26:44.288Z,40.60
2023-02-16T10:29:16.914Z,38.75
2023-02-16T10:31:56.482Z,38.03
2023-02-16T10:35:02.483Z,38.96
2023-02-16T10:37:56.774Z,40.43
2023-02-16T10:40:38.422Z,40.96
2023-02-16T10:43:45.152Z,39.81
2023-02-16T10:46:22.759Z,38.50
2023-02-16T10:48:54.511Z,40.06
2023-02-16T10:51:28.280Z,39.80
2023-02-16T10:54:17.544Z,40.04
2023-02-16T10:57:26.522Z,39.08
2023-02-16T10:59:55.011Z,39.44
2023-02-16T11:02:38.927Z,37.87
2023-02-16T11:05:36.429Z,36.99
2023-02-16T11:08:04.861Z,35.23
2023-02-16T11:10:39.832Z,37.89
2023-02-16T11:13:16.891Z,37.31
2023-02-16T11:15:43.972Z,36.57
2023-02-16T11:18:43.774Z,36.39
2023-02-16T11:21:12.246Z,34.23
2023-02-16T11:23:42.124Z,34.39
2023-02-16T11:26:11.823Z,34.49
2023-02-16T11:28:51.093Z,36.09
2023-02-16T11:31:39.885Z,34.17
2023-02-16T11:34:33.320Z,32.92
2023-02-16T11:37:18.129Z,34.78
2023-02-16T11:39:56.684Z,33.83
2023-02-16T11:42:40.702Z,34.83
2023-02-16T11:45:09.678Z,32.81
2023-02-16T11:47:40.422Z,34.41
2023-02-16T11:50:09.668Z,33.43
2023-02-16T11:52:37.012Z,33.62
2023-02-16T11:55:04.818Z,33.55
2023-02-16T11:57:36.979Z,34.06
2023-02-16T12:00:18.232Z,32.49
2023-02-16T12:03:12.181Z,31.59
2023-02-16T12:06:15.041Z,31.70
2023-02-16T12:09:00.002Z,31.64
2023-02-16T12:12:09.456Z,32.87
2023-02-16T12:15:04.357Z,32.86
2023-02-16T12:17:49.982Z,32.15
2023-02-16T12:20:39.841Z,32.41
2023-02-16T12:23:52.442Z,32.87
2023-02-16T12:26:52.229Z,32.28
2023-02-16T12:29:45.055Z,31.89
2023-02-16T12:32:24.434Z,31.20
2023-02-16T12:35:09.560Z,32.25
2023-02-16T12:38:20.608Z,32.31
2023-02-16T12:41:05.964Z,31.20
2023-02-16T12:43:42.060Z,30.96
2023-02-16T12:46:44.998Z,32.33
2023-02-16T12:49:36.347Z,31.57
2023-02-16T12:52:18.321Z,31.49
2023-02-16T12:55:17.256Z,32.53
2023-02-16T12:57:55.365Z,31.39
2023-02-16T13:00:28.850Z,31.31
2023-02-16T13:03:35.285Z,31.71
2023-02-16T13:06:37.620Z,31.40
2023-02-16T13:09:35.879Z,29.49
2023-02-16T13:12:36.495Z,27.74
2023-02-16T13:15:19.532Z,27.35
2023-02-16T13:18:02.226Z,27.38
2023-02-16T13:20:30.271Z,26.98
2023-02-16T13:23:43.777Z,27.75
2023-02-16T13:26:41.023Z,27.72
2023-02-16T13:29:26.911Z,26.73
2023-02-16T13:32:20.190Z,25.82
2023-02-16T13:35:00.196Z,25.44
2023-02-16T13:37:48.572Z,25.85
2023-02-16T13:41:03.093Z,23.36
2023-02-16T13:43:36.535Z,22.82
2023-02-16T13:46:10.540Z,22.40
2023-02-16T13:48:48.834Z,22.63
2023-02-16T13:51:20.672Z,22.97
2023-02-16T13:54:00.243Z,21.52
2023-02-16T13:56:30.734Z,22.68
2023-02-16T13:59:19.706Z,22.56
2023-02-16T14:01:48.991Z,22.22
2023-02-16T14:04:25.395Z,22.04
2023-02-16T14:07:18.325Z,22.30
2023-02-16T14:09:49.585Z,22.74
2023-02-16T14:12:37.939Z,23.57
2023-02-16T14:15:18.360Z,24.05
2023-02-16T14:17:47.178Z,24.36
2023-02-16T14:20:15.827Z,24.00
2023-02-16T14:22:45.898Z,23.89
2023-02-16T14:25:24.801Z,24.10
2023-02-16T14:28:29.750Z,24.35
2023-02-16T14:30:59.690Z,24.62
2023-02-16T14:34:01.041Z,25.39
2023-02-16T14:36:29.148Z,25.51
2023-02-16T14:38:58.412Z,25.28
2023-02-16T14:41:43.738Z,25.37
2023-02-16T14:44:38.862Z,24.79
2023-02-16T14:47:37.126Z,25.64
2023-02-16T14:50:51.324Z,25.06
2023-02-16T14:53:55.051Z,25.55
2023-02-16T14:56:34.196Z,26.37
2023-02-16T14:59:13.364Z,26.81
2023-02-16T15:01:43.744Z,26.91
2023-02-16T15:04:12.086Z,26.14
2023-02-16T15:06:44.463Z,25.69
2023-02-16T15:09:25.231Z,26.43
2023-02-16T15:12:22.101Z,27.03
2023-02-16T15:14:59.669Z,27.17
2023-02-16T15:17:40.163Z,27.01
2023-02-16T15:20:31.288Z,27.42
2023-02-16T15:23:07.439Z,27.79
2023-02-16T15:25:40.644Z,28.03
2023-02-16T15:28:10.519Z,28.31
2023-02-16T15:30:41.200Z,28.79
2023-02-16T15:33:22.929Z,29.16
2023-02-16T15:36:14.265Z,29.39
2023-02-16T15:38:57.556Z,29.90
2023-02-16T15:41:35.095Z,30.23
2023-02-16T15:44:05.776Z,30.63
2023-02-16T15:46:39.631Z,30.82
2023-02-16T15:49:27.077Z,31.02
2023-02-16T15:51:57.086Z,30.94
2023-02-16T15:54:35.529Z,31.08
2023-02-16T15:57:15.596Z,31.15
2023-02-16T15:59:54.285Z,31.80
2023-02-16T16:02:37.611Z,32.32
2023-02-16T16:05:20.742Z,32.51
2023-02-16T16:07:48.393Z,32.70
2023-02-16T16:10:41.588Z,32.82
2023-02-16T16:13:29.009Z,33.29
2023-02-16T16:16:01.910Z,33.23
2023-02-16T16:18:39.805Z,33.71
2023-02-16T16:21:33.949Z,34.61
2023-02-16T16:24:07.877Z,35.19
2023-02-16T16:26:58.234Z,35.62
2023-02-16T16:29:41.441Z,35.64
2023-02-16T16:32:23.106Z,36.30
2023-02-16T16:34:51.128Z,36.41
2023-02-16T16:37:34.593Z,37.18
2023-02-16T16:40:19.882Z,37.30
2023-02-16T16:43:02.338Z,37.00
2023-02-16T16:45:45.799Z,37.64
2023-02-16T16:48:34.588Z,38.07
2023-02-16T16:51:43.414Z,38.09
2023-02-16T16:54:22.305Z,38.75
2023-02-16T16:56:49.197Z,38.20
2023-02-16T16:59:17.038Z,38.66
2023-02-16T17:01:46.080Z,38.99
2023-02-16T17:04:13.231Z,39.16
2023-02-16T17:06:40.258Z,39.30
2023-02-16T17:09:07.358Z,39.39
2023-02-16T17:11:37.146Z,39.57
2023-02-16T17:14:15.871Z,39.21
2023-02-16T17:16:47.291Z,39.62
2023-02-16T17:19:17.722Z,40.05
2023-02-16T17:21:46.296Z,39.95
2023-02-16T17:24:14.260Z,41.56
2023-02-16T17:26:43.318Z,41.15
2023-02-16T17:29:10.440Z,41.44
2023-02-16T17:31:37.585Z,42.00
2023-02-16T17:34:04.647Z,41.37
2023-02-16T17:36:31.554Z,42.25
2023-02-16T17:38:58.537Z,41.83
2023-02-16T17:41:28.588Z,41.67
2023-02-16T17:43:55.971Z,42.44
2023-02-16T17:46:24.491Z,42.43
2023-02-16T17:48:55.269Z,41.85
2023-02-16T17:51:24.838Z,42.56
2023-02-16T17:53:52.274Z,43.30
2023-02-16T17:56:22.515Z,43.49
2023-02-16T17:58:50.570Z,43.57
2023-02-16T18:01:19.214Z,43.67
2023-02-16T18:03:46.317Z,44.06
2023-02-16T18:06:24.378Z,44.69
2023-02-16T18:08:52.074Z,45.51
2023-02-16T18:11:19.312Z,45.58
2023-02-16T18:13:46.258Z,45.81
2023-02-16T18:16:21.672Z,45.41
2023-02-16T18:18:48.901Z,45.23
2023-02-16T18:21:15.932Z,45.37
2023-02-16T18:23:42.912Z,45.53
2023-02-16T18:26:14.709Z,45.34
2023-02-16T18:28:41.964Z,45.25
2023-02-16T18:31:09.199Z,45.20
2023-02-16T18:33:36.392Z,45.53
2023-02-16T18:36:04.540Z,45.35
2023-02-16T18:38:32.098Z,45.31
2023-02-16T18:40:59.073Z,45.18
2023-02-16T18:43:26.355Z,45.23
2023-02-16T18:45:53.505Z,45.08
2023-02-16T18:48:21.902Z,45.29
2023-02-16T18:50:48.980Z,45.63
2023-02-16T18:53:16.304Z,45.36
2023-02-16T18:55:43.853Z,45.37
2023-02-16T18:58:13.572Z,45.85
2023-02-16T19:00:41.240Z,45.90
2023-02-16T19:03:08.734Z,45.97
2023-02-16T19:05:36.151Z,45.81
2023-02-16T19:08:03.422Z,46.26
2023-02-16T19:10:30.797Z,45.79
2023-02-16T19:12:57.979Z,46.27
2023-02-16T19:15:25.224Z,46.39
2023-02-16T19:17:54.003Z,46.59
2023-02-16T19:20:21.674Z,46.17
2023-02-16T19:22:50.591Z,46.66
2023-02-16T19:25:18.060Z,46.72
2023-02-16T19:27:45.234Z,46.98
2023-02-16T19:30:12.829Z,47.00
2023-02-16T19:32:41.086Z,47.47
2023-02-16T19:35:10.037Z,47.50
2023-02-16T19:37:37.224Z,47.15
2023-02-16T19:40:06.914Z,47.60
2023-02-16T19:42:34.082Z,47.74
2023-02-16T19:45:01.129Z,48.03
2023-02-16T19:47:28.173Z,47.73
2023-02-16T19:49:55.124Z,47.72
2023-02-16T19:52:22.183Z,47.58
2023-02-16T19:54:49.442Z,47.46
2023-02-16T19:57:16.555Z,47.50
2023-02-16T19:59:43.591Z,47.57
2023-02-16T20:02:15.538Z,47.27
2023-02-16T20:04:44.483Z,47.50
2023-02-16T20:07:11.505Z,47.12
2023-02-16T20:09:39.172Z,47.19
2023-02-16T20:12:06.721Z,47.31
2023-02-16T20:14:33.907Z,47.63
2023-02-16T20:17:00.929Z,47.57
2023-02-16T20:19:28.185Z,47.57
2023-02-16T20:21:55.607Z,47.52
2023-02-16T20:24:22.996Z,47.73
2023-02-16T20:26:52.046Z,47.99
2023-02-16T20:29:20.843Z,48.18
2023-02-16T20:31:55.287Z,48.08
2023-02-16T20:34:26.019Z,48.11
2023-02-16T20:36:53.754Z,47.87
2023-02-16T20:39:20.823Z,47.67
2023-02-16T20:41:47.750Z,47.77
2023-02-16T20:44:14.797Z,47.91
2023-02-16T20:46:42.377Z,47.45
2023-02-16T20:49:09.617Z,47.50
2023-02-16T20:51:37.824Z,47.54
2023-02-16T20:54:05.364Z,47.18
2023-02-16T20:56:32.350Z,47.39
2023-02-16T20:58:59.582Z,47.52
2023-02-16T21:01:38.026Z,47.36
2023-02-16T21:04:07.866Z,47.26
2023-02-16T21:06:36.590Z,47.14
2023-02-16T21:09:05.757Z,46.95
2023-02-16T21:11:33.273Z,46.98
2023-02-16T21:14:02.079Z,47.13
2023-02-16T21:16:29.815Z,47.15
2023-02-16T21:18:57.288Z,46.78
2023-02-16T21:21:24.781Z,46.80
2023-02-16T21:23:53.964Z,46.79
2023-02-16T21:26:24.486Z,46.46
2023-02-16T21:28:51.969Z,46.45
2023-02-16T21:31:25.508Z,46.44
2023-02-16T21:33:53.747Z,46.37
2023-02-16T21:36:26.036Z,46.54
2023-02-16T21:38:53.897Z,46.45
2023-02-16T21:41:29.087Z,46.47
2023-02-16T21:44:05.228Z,46.28
2023-02-16T21:46:39.246Z,46.21
2023-02-16T21:49:11.145Z,46.21
2023-02-16T21:51:40.629Z,46.14
2023-02-16T21:54:14.741Z,46.25
2023-02-16T21:56:50.976Z,45.75
2023-02-16T21:59:20.002Z,45.62
2023-02-16T22:01:51.376Z,45.65
2023-02-16T22:04:22.045Z,45.72
2023-02-16T22:06:51.104Z,45.33
2023-02-16T22:09:22.442Z,45.50
2023-02-16T22:11:50.898Z,45.16
2023-02-16T22:14:18.653Z,45.19
2023-02-16T22:16:47.531Z,45.26
2023-02-16T22:19:17.565Z,45.49
2023-02-16T22:21:46.884Z,44.96
2023-02-16T22:24:16.999Z,45.48
2023-02-16T22:26:45.316Z,45.33
2023-02-16T22:29:13.022Z,45.23
2023-02-16T22:31:48.733Z,45.97
2023-02-16T22:34:19.946Z,46.39
2023-02-16T22:36:47.360Z,46.10
2023-02-16T22:39:18.938Z,46.43
2023-02-16T22:41:46.193Z,46.05
2023-02-16T22:44:13.136Z,46.58
2023-02-16T22:46:40.096Z,46.24
2023-02-16T22:49:07.093Z,46.14
2023-02-16T22:51:34.354Z,46.38
2023-02-16T22:54:02.367Z,46.75
2023-02-16T22:56:30.811Z,46.22
2023-02-16T22:58:59.619Z,46.64
2023-02-16T23:01:29.917Z,46.66
2023-02-16T23:03:59.611Z,46.43
2023-02-16T23:06:33.756Z,46.48
2023-02-16T23:09:07.679Z,46.43
2023-02-16T23:11:36.457Z,46.39
2023-02-16T23:14:04.523Z,46.33
2023-02-16T23:16:31.981Z,46.22
2023-02-16T23:18:59.981Z,46.34
2023-02-16T23:21:30.343Z,46.00
2023-02-16T23:23:58.812Z,46.34
2023-02-16T23:26:29.109Z,46.16
2023-02-16T23:28:59.645Z,45.79
2023-02-16T23:31:26.989Z,45.73
2023-02-16T23:33:56.644Z,46.04
2023-02-16T23:36:23.733Z,45.69
2023-02-16T23:38:50.918Z,46.16
2023-02-16T23:41:18.164Z,45.89
2023-02-16T23:43:45.290Z,45.63
2023-02-16T23:46:12.957Z,45.60
2023-02-16T23:48:40.094Z,45.62
2023-02-16T23:51:07.121Z,45.93
2023-02-16T23:53:34.542Z,45.65
2023-02-16T23:56:06.009Z,45.66
2023-02-16T23:58:41.329Z,45.77
